Flight Track Log - Related Links

Times and Time Zones

All times are in EDT time to prevent confusion due to time zone crossing. See the DAL6221 flight status page for this flight to view local times or setup timezone preferences in your user account.

Time Position Orientation Groundspeed Altitude Reporting Facility
EDT Latitude Longitude Course Direction KTS MPH feet Rate Location/Type
Mon 03:07:27 PM 44.3553 -73.0933 173° South 220 253 7,100  Level Boston Center
Mon 03:08:27 PM 44.2842 -73.1244 197° South 245 282 10,000 2,400 Climbing Boston Center
Mon 03:09:27 PM 44.2092 -73.1583 198° South 267 307 11,900 1,900 Climbing Boston Center
Mon 03:10:27 PM 44.1192 -73.1978 197° South 319 367 13,800 2,050 Climbing Boston Center
Mon 03:11:00 PM 43.9287 -73.3552 196° South  Level FlightAware Approximate
Mon 03:11:27 PM 44.0253 -73.2397 198° South 351 404 16,000  Level Boston Center
Mon 03:12:27 PM 43.9269 -73.2847 198° South 367 422 17,800 1,950 Climbing Boston Center
Mon 03:13:27 PM 43.8286 -73.3294 198° South 367 422 19,900 1,950 Climbing Boston Center
Mon 03:14:27 PM 43.7344 -73.3711 198° South 375 432 21,700 1,050 Climbing Boston Center
Mon 03:15:27 PM 43.6236 -73.4211 198° South 384 442 22,000 150 Climbing Boston Center
Mon 03:16:27 PM 43.5192 -73.4650 197° South 389 448 22,000  Level Boston Center
Mon 03:17:27 PM 43.4122 -73.5147 199° South 389 448 22,000  Level Boston Center
Mon 03:18:27 PM 43.3036 -73.5469 192° South 394 453 22,000  Level Boston Center
Mon 03:19:27 PM 43.1889 -73.5564 183° South 405 466 22,000  Level Boston Center
Mon 03:20:27 PM 43.0828 -73.5600 181° South 416 479 22,000  Level Boston Center
Mon 03:21:27 PM 42.9658 -73.5636 181° South 422 486 22,000  Level Boston Center
Mon 03:22:27 PM 42.8408 -73.5700 182° South 422 486 22,000  Level Boston Center
Mon 03:23:27 PM 42.7261 -73.5733 181° South 422 486 22,000  Level Boston Center
Mon 03:24:27 PM 42.6072 -73.5769 181° South 422 486 22,000 -150 Level Boston Center
Mon 03:25:27 PM 42.4925 -73.5833 182° South 422 486 21,700 -700 Descending Boston Center
Mon 03:26:27 PM 42.3781 -73.5867 181° South 417 480 20,600 -1,050 Descending Boston Center
Mon 03:27:27 PM 42.2800 -73.5850 179° South 407 468 19,600 -1,100 Descending Boston Center
Mon 03:28:27 PM 42.1589 -73.5939 183° South 401 461 18,400 -800 Descending Boston Center
Mon 03:29:27 PM 42.0506 -73.5947 180° South 401 461 18,000 -250 Descending Boston Center
Mon 03:30:27 PM 41.9422 -73.5983 181° South 401 461 17,900 -650 Descending Boston Center
Mon 03:31:27 PM 41.8381 -73.5992 180° South 395 455 16,700 -1,450 Descending Boston Center
Mon 03:32:27 PM 41.7500 -73.6561 206° Southwest 353 406 15,000 -1,600 Descending Boston Center
Mon 03:33:27 PM 41.6658 -73.7156 208° Southwest 353 406 13,500 -1,432 Descending Boston Center
Mon 03:35:23 PM 41.5167 -73.8333 211° Southwest 321 369 10,800 -1,253 Descending New York TRACON
Mon 03:36:29 PM 41.4333 -73.8667 197° South 269 310 9,700 -850 Descending New York TRACON
Mon 03:37:23 PM 41.3833 -73.8333 153° Southeast 270 311 9,100 -474 Descending New York TRACON
Mon 03:38:23 PM 41.3167 -73.7667 143° Southeast 261 300 8,800 -550 Descending New York TRACON
Mon 03:39:23 PM 41.2500 -73.7167 151° Southeast 263 303 8,000 -905 Descending New York TRACON
Mon 03:40:29 PM 41.1833 -73.6667 151° Southeast 256 295 6,900 -1,143 Descending New York TRACON
Mon 03:41:29 PM 41.1333 -73.6167 143° Southeast 246 283 5,600 -1,263 Descending New York TRACON
Mon 03:42:23 PM 41.0667 -73.6333 191° South 272 313 4,500 -842 Descending New York TRACON
Mon 03:43:23 PM 41.0167 -73.7000 225° Southwest 275 316 4,000 -250 Descending New York TRACON
Mon 03:44:23 PM 40.9833 -73.7833 242° Southwest 276 318 4,000  Level New York TRACON
Mon 03:45:29 PM 40.9167 -73.8667 223° Southwest 274 315 4,000  Level New York TRACON
Mon 03:46:23 PM 40.8833 -73.9333 237° Southwest 257 296 4,000  Level New York TRACON
Mon 03:47:23 PM 40.8167 -73.9833 210° Southwest 258 297 4,000  Level New York TRACON
Mon 03:48:23 PM 40.7500 -74.0167 201° Southwest 255 293 4,000  Level New York TRACON
Mon 03:49:23 PM 40.6833 -74.0500 201° Southwest 244 281 4,000 -400 Level New York TRACON
Mon 03:50:23 PM 40.6333 -74.0667 194° South 203 234 3,200 -500 Descending New York TRACON
Mon 03:51:23 PM 40.6333 -74.0167 90° East 163 188 3,000 -200 Descending New York TRACON
Mon 03:52:23 PM 40.6667 -73.9667 49° Northeast 150 173 2,800 -500 Descending New York TRACON
Mon 03:53:23 PM 40.6833 -73.9500 37° Northeast 133 153 2,000 -750 Descending New York TRACON
Mon 03:54:23 PM 40.7167 -73.9167 37° Northeast 132 152 1,300 -700 Descending New York TRACON

Login

Don't have an account? Register now (free) for customized features, flight alerts, and more!